createdAt,value
2023-07-25T00:04:53.828Z,84.86
2023-07-25T00:09:56.507Z,85.04
2023-07-25T00:14:58.957Z,84.92
2023-07-25T00:20:13.088Z,84.81
2023-07-25T00:25:19.910Z,84.68
2023-07-25T00:30:25.586Z,84.63
2023-07-25T00:35:30.460Z,84.71
2023-07-25T00:40:32.477Z,84.65
2023-07-25T00:45:37.513Z,84.60
2023-07-25T00:50:40.028Z,84.61
2023-07-25T00:56:18.451Z,84.55
2023-07-25T01:01:54.674Z,84.61
2023-07-25T01:07:13.609Z,84.50
2023-07-25T01:12:21.427Z,84.67
2023-07-25T01:17:27.959Z,84.49
2023-07-25T01:23:00.424Z,84.66
2023-07-25T01:28:38.498Z,84.77
2023-07-25T01:33:46.218Z,84.76
2023-07-25T01:39:34.038Z,85.08
2023-07-25T01:45:02.076Z,84.99
2023-07-25T01:50:12.397Z,84.87
2023-07-25T01:55:23.510Z,84.89
2023-07-25T02:00:31.507Z,84.76
2023-07-25T02:05:52.045Z,84.86
2023-07-25T02:11:24.974Z,84.91
2023-07-25T02:16:48.953Z,84.67
2023-07-25T02:22:24.028Z,84.62
2023-07-25T02:28:20.919Z,84.65
2023-07-25T02:34:03.279Z,84.38
2023-07-25T02:39:49.330Z,84.33
2023-07-25T02:45:17.853Z,84.20
2023-07-25T02:50:23.905Z,84.24
2023-07-25T02:55:27.261Z,84.06
2023-07-25T03:00:55.409Z,84.19
2023-07-25T03:06:01.094Z,84.34
2023-07-25T03:11:06.222Z,84.43
2023-07-25T03:16:16.597Z,84.48
2023-07-25T03:21:27.348Z,84.71
2023-07-25T03:26:52.991Z,84.73
2023-07-25T03:32:05.691Z,84.35
2023-07-25T03:37:15.983Z,84.61
2023-07-25T03:42:26.828Z,84.64
2023-07-25T03:47:50.128Z,84.51
2023-07-25T03:53:18.841Z,84.45
2023-07-25T03:58:31.088Z,84.27
2023-07-25T04:03:46.834Z,84.07
2023-07-25T04:09:12.277Z,83.93
2023-07-25T04:14:23.008Z,83.62
2023-07-25T04:19:30.267Z,83.51
2023-07-25T04:24:41.454Z,83.20
2023-07-25T04:30:37.213Z,82.90
2023-07-25T04:36:08.858Z,82.38
2023-07-25T04:42:15.305Z,81.95
2023-07-25T04:48:12.598Z,81.77
2023-07-25T04:53:42.652Z,81.56
2023-07-25T04:58:55.061Z,81.64
2023-07-25T05:04:28.051Z,81.41
2023-07-25T05:09:38.081Z,81.29
2023-07-25T05:14:53.058Z,80.98
2023-07-25T05:20:14.578Z,80.96
2023-07-25T05:25:31.288Z,80.81
2023-07-25T05:30:47.165Z,80.50
2023-07-25T05:36:04.699Z,79.85
2023-07-25T05:41:30.737Z,79.33
2023-07-25T05:46:53.766Z,79.27
2023-07-25T05:52:40.646Z,78.80
2023-07-25T05:57:45.888Z,78.37
2023-07-25T06:02:48.014Z,77.81
2023-07-25T06:07:52.917Z,77.50
2023-07-25T06:13:07.201Z,76.95
2023-07-25T06:18:34.955Z,76.64
2023-07-25T06:23:40.982Z,76.10
2023-07-25T06:28:52.240Z,75.86
2023-07-25T06:33:54.493Z,75.31
2023-07-25T06:39:01.342Z,74.15
2023-07-25T06:44:06.593Z,73.30
2023-07-25T06:49:11.232Z,72.49
2023-07-25T06:54:16.265Z,71.77
2023-07-25T06:59:30.849Z,70.90
2023-07-25T07:04:38.899Z,70.82
2023-07-25T07:09:57.666Z,70.20
2023-07-25T07:15:22.787Z,69.15
2023-07-25T07:20:32.616Z,68.61
2023-07-25T07:25:37.998Z,68.18
2023-07-25T07:30:40.985Z,67.63
2023-07-25T07:35:46.383Z,67.05
2023-07-25T07:40:54.285Z,66.58
2023-07-25T07:46:17.378Z,66.07
2023-07-25T07:51:19.405Z,64.86
2023-07-25T07:56:28.489Z,63.96
2023-07-25T08:01:42.028Z,63.85
2023-07-25T08:06:51.755Z,63.93
2023-07-25T08:12:16.883Z,63.32
2023-07-25T08:17:22.459Z,63.31
2023-07-25T08:22:27.602Z,63.29
2023-07-25T08:28:26.020Z,63.55
2023-07-25T08:33:33.021Z,62.66
2023-07-25T08:38:55.507Z,62.87
2023-07-25T08:44:04.363Z,62.88
2023-07-25T08:49:12.229Z,62.61
2023-07-25T08:54:22.233Z,61.85
2023-07-25T08:59:26.469Z,60.94
2023-07-25T09:04:32.726Z,59.00
2023-07-25T09:09:34.925Z,56.32
2023-07-25T09:14:54.025Z,56.57
2023-07-25T09:20:34.054Z,56.24
2023-07-25T09:25:45.407Z,55.06
2023-07-25T09:30:50.696Z,55.01
2023-07-25T09:35:56.111Z,55.39
2023-07-25T09:41:19.575Z,54.55
2023-07-25T09:46:33.215Z,53.99
2023-07-25T09:51:38.122Z,54.22
2023-07-25T09:56:42.209Z,54.80
2023-07-25T10:01:47.241Z,54.79
2023-07-25T10:06:52.249Z,55.33
2023-07-25T10:11:57.991Z,56.10
2023-07-25T10:17:02.784Z,56.72
2023-07-25T10:22:16.050Z,57.19
2023-07-25T10:27:20.028Z,57.26
2023-07-25T10:32:25.471Z,57.55
2023-07-25T10:37:39.405Z,57.90
2023-07-25T10:43:05.773Z,58.22
2023-07-25T10:48:27.515Z,57.99
2023-07-25T10:53:29.707Z,57.68
2023-07-25T10:58:38.807Z,57.62
2023-07-25T11:03:41.064Z,57.09
2023-07-25T11:08:43.821Z,57.25
2023-07-25T11:14:08.537Z,57.30
2023-07-25T11:19:11.556Z,57.17
2023-07-25T11:24:14.184Z,57.05
2023-07-25T11:29:18.335Z,57.75
2023-07-25T11:34:21.795Z,58.68
2023-07-25T11:39:24.194Z,59.52
2023-07-25T11:44:26.486Z,60.41
2023-07-25T11:54:39.011Z,61.62
2023-07-25T11:59:42.356Z,61.76
2023-07-25T12:04:46.338Z,62.89
2023-07-25T12:09:56.230Z,63.65
2023-07-25T12:15:03.036Z,64.26
2023-07-25T12:20:22.433Z,65.04
2023-07-25T12:25:24.968Z,65.98
2023-07-25T12:30:27.928Z,66.83
2023-07-25T12:35:35.002Z,67.47
2023-07-25T12:40:40.443Z,68.07
2023-07-25T12:46:11.467Z,68.63
2023-07-25T12:52:01.806Z,69.22
2023-07-25T12:57:29.750Z,69.75
2023-07-25T13:03:17.529Z,70.32
2023-07-25T13:08:43.489Z,70.61
2023-07-25T13:14:21.469Z,71.16
2023-07-25T13:19:45.201Z,71.21
2023-07-25T13:25:13.373Z,71.14
2023-07-25T13:30:21.864Z,71.21
2023-07-25T13:35:40.748Z,71.40
2023-07-25T13:40:46.450Z,71.30
2023-07-25T13:46:51.550Z,71.57
2023-07-25T13:52:10.551Z,71.95
2023-07-25T13:57:12.959Z,72.13
2023-07-25T14:02:38.989Z,72.38
2023-07-25T14:07:54.201Z,72.56
2023-07-25T14:12:59.210Z,72.67
2023-07-25T14:18:45.089Z,73.09
2023-07-25T14:23:55.448Z,73.11
2023-07-25T14:30:00.308Z,72.81
2023-07-25T14:35:22.929Z,73.19
2023-07-25T14:41:04.292Z,73.49
2023-07-25T14:46:57.308Z,73.99
2023-07-25T14:52:42.118Z,74.86
2023-07-25T14:58:07.256Z,74.86
2023-07-25T15:03:32.245Z,75.05
2023-07-25T15:09:55.566Z,75.47
2023-07-25T15:16:49.382Z,75.75
2023-07-25T15:22:27.990Z,75.94
2023-07-25T15:28:33.580Z,76.57
2023-07-25T15:34:28.124Z,77.15
2023-07-25T15:40:55.439Z,77.53
2023-07-25T15:47:07.159Z,77.99
2023-07-25T15:53:30.834Z,78.25
2023-07-25T15:59:53.950Z,78.28
2023-07-25T16:05:46.169Z,78.53
2023-07-25T16:11:43.337Z,78.64
2023-07-25T16:16:50.896Z,78.97
2023-07-25T16:23:27.553Z,79.08
2023-07-25T16:29:11.572Z,79.00
2023-07-25T16:34:57.273Z,78.90
2023-07-25T16:40:33.525Z,78.59
2023-07-25T16:45:54.099Z,78.03
2023-07-25T16:52:06.043Z,76.92
2023-07-25T16:57:33.540Z,76.65
2023-07-25T17:03:20.051Z,76.65
2023-07-25T17:08:53.485Z,76.38
2023-07-25T17:14:27.655Z,76.41
2023-07-25T17:20:32.054Z,76.33
2023-07-25T17:26:37.489Z,76.32
2023-07-25T17:32:43.561Z,76.17
2023-07-25T17:38:50.372Z,75.88
2023-07-25T17:45:34.771Z,76.04
2023-07-25T17:52:21.978Z,76.24
2023-07-25T17:58:54.886Z,76.67
2023-07-25T18:05:08.551Z,76.81
2023-07-25T18:11:00.794Z,77.05
2023-07-25T18:16:56.276Z,77.49
2023-07-25T18:22:40.782Z,77.91
2023-07-25T18:27:53.994Z,78.44
2023-07-25T18:33:32.078Z,78.69
2023-07-25T18:39:15.657Z,79.04
2023-07-25T18:45:38.933Z,79.46
2023-07-25T18:51:15.617Z,79.79
2023-07-25T18:57:34.814Z,79.78
2023-07-25T19:03:40.805Z,79.93
2023-07-25T19:10:19.165Z,79.99
2023-07-25T19:16:53.889Z,80.20
2023-07-25T19:23:40.588Z,80.53
2023-07-25T19:29:55.012Z,80.65
2023-07-25T19:36:02.420Z,80.71
2023-07-25T19:42:46.487Z,81.21
2023-07-25T19:48:27.616Z,81.20
2023-07-25T19:54:52.826Z,81.55
2023-07-25T20:00:32.713Z,81.73
2023-07-25T20:06:46.463Z,82.26
2023-07-25T20:13:21.361Z,82.45
2023-07-25T20:19:23.106Z,82.76
2023-07-25T20:25:17.216Z,82.90
2023-07-25T20:31:19.421Z,83.11
2023-07-25T20:37:12.434Z,83.30
2023-07-25T20:42:55.547Z,83.54
2023-07-25T20:49:32.878Z,83.92
2023-07-25T20:55:58.779Z,84.15
2023-07-25T21:02:27.074Z,84.53
2023-07-25T21:08:58.914Z,84.54
2023-07-25T21:14:57.403Z,84.70
2023-07-25T21:21:33.508Z,84.53
2023-07-25T21:27:55.821Z,84.73
2023-07-25T21:34:34.700Z,85.05
2023-07-25T21:40:51.821Z,84.99
2023-07-25T21:47:29.573Z,85.27
2023-07-25T21:53:20.807Z,85.31
2023-07-25T21:59:57.970Z,85.29
2023-07-25T22:06:07.733Z,85.52
2023-07-25T22:12:53.748Z,85.31
2023-07-25T22:19:20.839Z,85.58
2023-07-25T22:25:57.503Z,85.73
2023-07-25T22:32:53.690Z,85.77
2023-07-25T22:39:37.318Z,85.55
2023-07-25T22:46:22.161Z,85.88
2023-07-25T22:53:02.600Z,85.64
2023-07-25T22:59:51.243Z,86.02
2023-07-25T23:06:37.116Z,86.29
2023-07-25T23:12:43.532Z,86.44
2023-07-25T23:18:49.402Z,86.83
2023-07-25T23:24:04.205Z,86.92
2023-07-25T23:30:14.538Z,86.80
2023-07-25T23:36:47.684Z,86.98
2023-07-25T23:43:12.004Z,87.06
2023-07-25T23:49:16.407Z,87.12
2023-07-25T23:56:12.295Z,87.60
